sensor_id;sensor_type;location;lat;lon;timestamp;temperature;humidity
32787;DHT22;19139;49.372;8.580;2024-01-07T00:02:22;20.30;89.10
32787;DHT22;19139;49.372;8.580;2024-01-07T00:04:49;20.30;89.10
32787;DHT22;19139;49.372;8.580;2024-01-07T00:07:15;20.30;89.10
32787;DHT22;19139;49.372;8.580;2024-01-07T00:09:42;20.30;89.10
32787;DHT22;19139;49.372;8.580;2024-01-07T00:12:10;20.30;89.10
32787;DHT22;19139;49.372;8.580;2024-01-07T00:14:37;20.30;89.10
32787;DHT22;19139;49.372;8.580;2024-01-07T00:17:04;20.30;89.10
32787;DHT22;19139;49.372;8.580;2024-01-07T00:19:30;20.30;89.10
32787;DHT22;19139;49.372;8.580;2024-01-07T00:22:02;20.30;89.10
32787;DHT22;19139;49.372;8.580;2024-01-07T00:24:29;20.30;89.10
32787;DHT22;19139;49.372;8.580;2024-01-07T00:26:56;20.30;89.10
32787;DHT22;19139;49.372;8.580;2024-01-07T00:29:23;20.30;89.10
32787;DHT22;19139;49.372;8.580;2024-01-07T00:31:49;20.30;89.10
32787;DHT22;19139;49.372;8.580;2024-01-07T00:34:16;20.30;89.10
32787;DHT22;19139;49.372;8.580;2024-01-07T00:36:43;20.30;89.10
32787;DHT22;19139;49.372;8.580;2024-01-07T00:39:10;20.30;89.10
32787;DHT22;19139;49.372;8.580;2024-01-07T00:41:36;20.20;89.10
32787;DHT22;19139;49.372;8.580;2024-01-07T00:44:03;20.20;89.10
32787;DHT22;19139;49.372;8.580;2024-01-07T00:46:30;20.30;89.10
32787;DHT22;19139;49.372;8.580;2024-01-07T00:48:56;20.30;89.10
32787;DHT22;19139;49.372;8.580;2024-01-07T00:51:23;20.20;89.10
32787;DHT22;19139;49.372;8.580;2024-01-07T00:53:50;20.30;89.10
32787;DHT22;19139;49.372;8.580;2024-01-07T00:56:17;20.20;89.10
32787;DHT22;19139;49.372;8.580;2024-01-07T00:58:43;20.20;89.00
32787;DHT22;19139;49.372;8.580;2024-01-07T01:01:10;20.20;89.10
32787;DHT22;19139;49.372;8.580;2024-01-07T01:03:37;20.30;89.10
32787;DHT22;19139;49.372;8.580;2024-01-07T01:06:04;20.20;89.00
32787;DHT22;19139;49.372;8.580;2024-01-07T01:08:31;20.20;89.10
32787;DHT22;19139;49.372;8.580;2024-01-07T01:10:57;20.20;89.10
32787;DHT22;19139;49.372;8.580;2024-01-07T01:13:24;20.20;89.00
32787;DHT22;19139;49.372;8.580;2024-01-07T01:15:51;20.20;89.00
32787;DHT22;19139;49.372;8.580;2024-01-07T01:18:18;20.20;89.10
32787;DHT22;19139;49.372;8.580;2024-01-07T01:20:45;20.20;89.00
32787;DHT22;19139;49.372;8.580;2024-01-07T01:23:12;20.20;89.00
32787;DHT22;19139;49.372;8.580;2024-01-07T01:25:38;20.20;89.00
32787;DHT22;19139;49.372;8.580;2024-01-07T01:28:06;20.20;89.10
32787;DHT22;19139;49.372;8.580;2024-01-07T01:30:33;20.20;89.00
32787;DHT22;19139;49.372;8.580;2024-01-07T01:32:59;20.20;89.00
32787;DHT22;19139;49.372;8.580;2024-01-07T01:35:26;20.20;89.00
32787;DHT22;19139;49.372;8.580;2024-01-07T01:37:53;20.20;89.00
32787;DHT22;19139;49.372;8.580;2024-01-07T01:40:21;20.20;89.10
32787;DHT22;19139;49.372;8.580;2024-01-07T01:42:47;20.20;89.10
32787;DHT22;19139;49.372;8.580;2024-01-07T01:45:17;20.20;89.00
32787;DHT22;19139;49.372;8.580;2024-01-07T01:47:46;20.20;89.00
32787;DHT22;19139;49.372;8.580;2024-01-07T01:50:13;20.10;88.90
32787;DHT22;19139;49.372;8.580;2024-01-07T01:52:41;20.10;89.00
32787;DHT22;19139;49.372;8.580;2024-01-07T01:55:08;20.10;88.90
32787;DHT22;19139;49.372;8.580;2024-01-07T01:57:36;20.10;88.90
32787;DHT22;19139;49.372;8.580;2024-01-07T02:00:05;20.10;88.90
32787;DHT22;19139;49.372;8.580;2024-01-07T02:02:32;20.10;88.90
32787;DHT22;19139;49.372;8.580;2024-01-07T02:05:02;20.10;88.90
32787;DHT22;19139;49.372;8.580;2024-01-07T02:07:30;20.20;89.00
32787;DHT22;19139;49.372;8.580;2024-01-07T02:09:57;20.10;88.90
32787;DHT22;19139;49.372;8.580;2024-01-07T02:12:24;20.10;88.90
32787;DHT22;19139;49.372;8.580;2024-01-07T02:14:51;20.10;88.90
32787;DHT22;19139;49.372;8.580;2024-01-07T02:17:19;20.10;88.90
32787;DHT22;19139;49.372;8.580;2024-01-07T02:19:46;20.10;88.90
32787;DHT22;19139;49.372;8.580;2024-01-07T02:22:13;20.10;89.00
32787;DHT22;19139;49.372;8.580;2024-01-07T02:24:39;20.10;88.90
32787;DHT22;19139;49.372;8.580;2024-01-07T02:27:06;20.10;88.90
32787;DHT22;19139;49.372;8.580;2024-01-07T02:29:33;20.10;88.90
32787;DHT22;19139;49.372;8.580;2024-01-07T02:32:00;20.10;89.00
32787;DHT22;19139;49.372;8.580;2024-01-07T02:34:26;20.10;88.90
32787;DHT22;19139;49.372;8.580;2024-01-07T02:36:53;20.10;88.90
32787;DHT22;19139;49.372;8.580;2024-01-07T02:39:20;20.10;88.90
32787;DHT22;19139;49.372;8.580;2024-01-07T02:41:46;20.10;89.00
32787;DHT22;19139;49.372;8.580;2024-01-07T02:44:14;20.10;88.90
32787;DHT22;19139;49.372;8.580;2024-01-07T02:46:40;20.10;88.90
32787;DHT22;19139;49.372;8.580;2024-01-07T02:49:07;20.10;88.90
32787;DHT22;19139;49.372;8.580;2024-01-07T02:51:34;20.10;89.70
32787;DHT22;19139;49.372;8.580;2024-01-07T02:54:00;20.10;88.90
32787;DHT22;19139;49.372;8.580;2024-01-07T02:56:27;20.10;88.90
32787;DHT22;19139;49.372;8.580;2024-01-07T02:58:54;20.10;88.90
32787;DHT22;19139;49.372;8.580;2024-01-07T03:01:23;20.10;88.90
32787;DHT22;19139;49.372;8.580;2024-01-07T03:03:50;20.10;88.90
32787;DHT22;19139;49.372;8.580;2024-01-07T03:06:17;20.10;88.90
32787;DHT22;19139;49.372;8.580;2024-01-07T03:08:44;20.00;88.90
32787;DHT22;19139;49.372;8.580;2024-01-07T03:11:11;20.00;88.90
32787;DHT22;19139;49.372;8.580;2024-01-07T03:13:37;20.00;88.90
32787;DHT22;19139;49.372;8.580;2024-01-07T03:16:04;20.10;89.00
32787;DHT22;19139;49.372;8.580;2024-01-07T03:18:31;20.00;88.90
32787;DHT22;19139;49.372;8.580;2024-01-07T03:20:58;20.00;88.90
32787;DHT22;19139;49.372;8.580;2024-01-07T03:23:25;20.00;88.90
32787;DHT22;19139;49.372;8.580;2024-01-07T03:25:52;20.00;88.90
32787;DHT22;19139;49.372;8.580;2024-01-07T03:28:19;20.00;88.90
32787;DHT22;19139;49.372;8.580;2024-01-07T03:30:45;20.00;88.90
32787;DHT22;19139;49.372;8.580;2024-01-07T03:33:12;20.00;88.90
32787;DHT22;19139;49.372;8.580;2024-01-07T03:35:39;20.00;88.90
32787;DHT22;19139;49.372;8.580;2024-01-07T03:38:06;20.00;88.90
32787;DHT22;19139;49.372;8.580;2024-01-07T03:40:32;20.00;88.90
32787;DHT22;19139;49.372;8.580;2024-01-07T03:42:59;20.00;88.90
32787;DHT22;19139;49.372;8.580;2024-01-07T03:45:26;20.00;88.90
32787;DHT22;19139;49.372;8.580;2024-01-07T03:47:53;20.00;88.90
32787;DHT22;19139;49.372;8.580;2024-01-07T03:50:20;20.00;88.90
32787;DHT22;19139;49.372;8.580;2024-01-07T03:52:46;20.00;88.90
32787;DHT22;19139;49.372;8.580;2024-01-07T03:55:13;20.00;89.70
32787;DHT22;19139;49.372;8.580;2024-01-07T03:57:40;20.00;88.90
32787;DHT22;19139;49.372;8.580;2024-01-07T04:00:07;20.00;88.90
32787;DHT22;19139;49.372;8.580;2024-01-07T04:02:34;20.00;88.90
32787;DHT22;19139;49.372;8.580;2024-01-07T04:05:01;20.00;88.90
32787;DHT22;19139;49.372;8.580;2024-01-07T04:07:27;20.00;88.90
32787;DHT22;19139;49.372;8.580;2024-01-07T04:09:54;20.00;88.90
32787;DHT22;19139;49.372;8.580;2024-01-07T04:12:21;20.00;88.90
32787;DHT22;19139;49.372;8.580;2024-01-07T04:14:48;20.00;88.90
32787;DHT22;19139;49.372;8.580;2024-01-07T04:17:14;19.90;88.80
32787;DHT22;19139;49.372;8.580;2024-01-07T04:19:41;20.00;88.90
32787;DHT22;19139;49.372;8.580;2024-01-07T04:22:08;19.90;88.80
32787;DHT22;19139;49.372;8.580;2024-01-07T04:24:35;20.00;88.90
32787;DHT22;19139;49.372;8.580;2024-01-07T04:27:01;20.00;88.90
32787;DHT22;19139;49.372;8.580;2024-01-07T04:29:28;19.90;88.80
32787;DHT22;19139;49.372;8.580;2024-01-07T04:31:55;19.90;88.80
32787;DHT22;19139;49.372;8.580;2024-01-07T04:34:21;19.90;88.80
32787;DHT22;19139;49.372;8.580;2024-01-07T04:36:49;19.90;88.90
32787;DHT22;19139;49.372;8.580;2024-01-07T04:39:16;19.90;88.80
32787;DHT22;19139;49.372;8.580;2024-01-07T04:41:42;19.90;88.80
32787;DHT22;19139;49.372;8.580;2024-01-07T04:44:10;19.90;88.80
32787;DHT22;19139;49.372;8.580;2024-01-07T04:46:39;19.90;88.80
32787;DHT22;19139;49.372;8.580;2024-01-07T04:49:06;19.90;88.80
32787;DHT22;19139;49.372;8.580;2024-01-07T04:51:33;19.90;88.80
32787;DHT22;19139;49.372;8.580;2024-01-07T04:54:00;19.90;88.80
32787;DHT22;19139;49.372;8.580;2024-01-07T04:56:27;19.90;88.70
32787;DHT22;19139;49.372;8.580;2024-01-07T04:58:53;19.90;88.80
32787;DHT22;19139;49.372;8.580;2024-01-07T05:01:20;19.90;88.90
32787;DHT22;19139;49.372;8.580;2024-01-07T05:03:48;19.90;88.80
32787;DHT22;19139;49.372;8.580;2024-01-07T05:06:15;19.90;88.80
32787;DHT22;19139;49.372;8.580;2024-01-07T05:08:42;19.90;88.70
32787;DHT22;19139;49.372;8.580;2024-01-07T05:11:09;19.90;88.80
32787;DHT22;19139;49.372;8.580;2024-01-07T05:13:36;19.90;88.80
32787;DHT22;19139;49.372;8.580;2024-01-07T05:16:02;19.90;88.70
32787;DHT22;19139;49.372;8.580;2024-01-07T05:18:29;19.90;88.70
32787;DHT22;19139;49.372;8.580;2024-01-07T05:20:56;19.90;88.80
32787;DHT22;19139;49.372;8.580;2024-01-07T05:23:23;19.90;88.80
32787;DHT22;19139;49.372;8.580;2024-01-07T05:25:49;19.90;88.80
32787;DHT22;19139;49.372;8.580;2024-01-07T05:28:16;19.90;88.80
32787;DHT22;19139;49.372;8.580;2024-01-07T05:30:46;19.80;88.70
32787;DHT22;19139;49.372;8.580;2024-01-07T05:33:13;19.80;88.70
32787;DHT22;19139;49.372;8.580;2024-01-07T05:35:40;19.80;88.70
32787;DHT22;19139;49.372;8.580;2024-01-07T05:38:07;19.80;88.70
32787;DHT22;19139;49.372;8.580;2024-01-07T05:40:33;19.90;88.80
32787;DHT22;19139;49.372;8.580;2024-01-07T05:43:00;19.80;88.70
32787;DHT22;19139;49.372;8.580;2024-01-07T05:45:27;19.80;88.70
32787;DHT22;19139;49.372;8.580;2024-01-07T05:47:53;19.80;88.70
32787;DHT22;19139;49.372;8.580;2024-01-07T05:50:20;19.80;88.70
32787;DHT22;19139;49.372;8.580;2024-01-07T05:52:47;19.80;88.70
32787;DHT22;19139;49.372;8.580;2024-01-07T05:55:13;19.80;88.70
32787;DHT22;19139;49.372;8.580;2024-01-07T05:57:40;19.80;88.70
32787;DHT22;19139;49.372;8.580;2024-01-07T06:00:07;19.80;88.80
32787;DHT22;19139;49.372;8.580;2024-01-07T06:02:34;19.80;88.70
32787;DHT22;19139;49.372;8.580;2024-01-07T06:05:02;19.80;88.80
32787;DHT22;19139;49.372;8.580;2024-01-07T06:07:29;19.80;88.70
32787;DHT22;19139;49.372;8.580;2024-01-07T06:09:56;19.80;88.70
32787;DHT22;19139;49.372;8.580;2024-01-07T06:12:23;19.80;88.70
32787;DHT22;19139;49.372;8.580;2024-01-07T06:14:50;19.80;88.70
32787;DHT22;19139;49.372;8.580;2024-01-07T06:17:16;19.80;88.70
32787;DHT22;19139;49.372;8.580;2024-01-07T06:19:43;19.80;88.70
32787;DHT22;19139;49.372;8.580;2024-01-07T06:22:10;19.80;88.80
32787;DHT22;19139;49.372;8.580;2024-01-07T06:24:36;19.80;88.70
32787;DHT22;19139;49.372;8.580;2024-01-07T06:27:03;19.80;88.70
32787;DHT22;19139;49.372;8.580;2024-01-07T06:29:30;19.80;88.70
32787;DHT22;19139;49.372;8.580;2024-01-07T06:31:57;19.80;88.80
32787;DHT22;19139;49.372;8.580;2024-01-07T06:34:24;19.80;88.70
32787;DHT22;19139;49.372;8.580;2024-01-07T06:36:50;19.80;88.70
32787;DHT22;19139;49.372;8.580;2024-01-07T06:39:18;19.80;88.70
32787;DHT22;19139;49.372;8.580;2024-01-07T06:41:45;19.80;88.70
32787;DHT22;19139;49.372;8.580;2024-01-07T06:44:11;19.80;88.70
32787;DHT22;19139;49.372;8.580;2024-01-07T06:46:38;19.80;88.70
32787;DHT22;19139;49.372;8.580;2024-01-07T06:49:05;19.80;88.70
32787;DHT22;19139;49.372;8.580;2024-01-07T06:51:32;19.70;88.70
32787;DHT22;19139;49.372;8.580;2024-01-07T06:53:58;19.80;88.70
32787;DHT22;19139;49.372;8.580;2024-01-07T06:56:25;19.80;88.70
32787;DHT22;19139;49.372;8.580;2024-01-07T06:58:52;19.80;88.70
32787;DHT22;19139;49.372;8.580;2024-01-07T07:01:22;19.70;88.70
32787;DHT22;19139;49.372;8.580;2024-01-07T07:03:50;19.80;88.70
32787;DHT22;19139;49.372;8.580;2024-01-07T07:06:17;19.80;88.70
32787;DHT22;19139;49.372;8.580;2024-01-07T07:08:43;19.70;88.70
32787;DHT22;19139;49.372;8.580;2024-01-07T07:11:10;19.80;88.70
32787;DHT22;19139;49.372;8.580;2024-01-07T07:13:37;19.70;88.70
32787;DHT22;19139;49.372;8.580;2024-01-07T07:16:05;19.70;88.70
32787;DHT22;19139;49.372;8.580;2024-01-07T07:18:32;19.70;88.70
32787;DHT22;19139;49.372;8.580;2024-01-07T07:21:00;19.70;88.70
32787;DHT22;19139;49.372;8.580;2024-01-07T07:23:26;19.70;88.70
32787;DHT22;19139;49.372;8.580;2024-01-07T07:25:53;19.70;88.60
32787;DHT22;19139;49.372;8.580;2024-01-07T07:28:20;19.80;88.70
32787;DHT22;19139;49.372;8.580;2024-01-07T07:30:46;19.70;88.70
32787;DHT22;19139;49.372;8.580;2024-01-07T07:33:17;19.70;88.70
32787;DHT22;19139;49.372;8.580;2024-01-07T07:35:44;19.70;88.70
32787;DHT22;19139;49.372;8.580;2024-01-07T07:38:11;19.70;89.50
32787;DHT22;19139;49.372;8.580;2024-01-07T07:40:38;19.70;88.70
32787;DHT22;19139;49.372;8.580;2024-01-07T07:43:04;19.70;88.70
32787;DHT22;19139;49.372;8.580;2024-01-07T07:45:31;19.70;88.60
32787;DHT22;19139;49.372;8.580;2024-01-07T07:47:58;19.70;88.60
32787;DHT22;19139;49.372;8.580;2024-01-07T07:50:25;19.70;88.70
32787;DHT22;19139;49.372;8.580;2024-01-07T07:52:52;19.70;88.70
32787;DHT22;19139;49.372;8.580;2024-01-07T07:55:19;19.70;88.70
32787;DHT22;19139;49.372;8.580;2024-01-07T07:57:46;19.70;88.70
32787;DHT22;19139;49.372;8.580;2024-01-07T08:00:14;19.70;88.70
32787;DHT22;19139;49.372;8.580;2024-01-07T08:02:41;19.70;88.70
32787;DHT22;19139;49.372;8.580;2024-01-07T08:05:08;19.70;88.70
32787;DHT22;19139;49.372;8.580;2024-01-07T08:07:35;19.70;88.70
32787;DHT22;19139;49.372;8.580;2024-01-07T08:10:01;19.70;88.70
32787;DHT22;19139;49.372;8.580;2024-01-07T08:12:28;19.70;88.70
32787;DHT22;19139;49.372;8.580;2024-01-07T08:14:55;19.70;88.70
32787;DHT22;19139;49.372;8.580;2024-01-07T08:17:22;19.70;88.70
32787;DHT22;19139;49.372;8.580;2024-01-07T08:19:48;19.70;88.60
32787;DHT22;19139;49.372;8.580;2024-01-07T08:22:15;19.70;88.60
32787;DHT22;19139;49.372;8.580;2024-01-07T08:24:42;19.60;88.60
32787;DHT22;19139;49.372;8.580;2024-01-07T08:27:09;19.60;88.50
32787;DHT22;19139;49.372;8.580;2024-01-07T08:29:35;19.70;88.60
32787;DHT22;19139;49.372;8.580;2024-01-07T08:32:02;19.60;88.50
32787;DHT22;19139;49.372;8.580;2024-01-07T08:34:29;19.70;88.60
32787;DHT22;19139;49.372;8.580;2024-01-07T08:36:56;19.70;88.60
32787;DHT22;19139;49.372;8.580;2024-01-07T08:39:23;19.70;88.70
32787;DHT22;19139;49.372;8.580;2024-01-07T08:41:51;19.60;88.50
32787;DHT22;19139;49.372;8.580;2024-01-07T08:44:17;19.70;88.60
32787;DHT22;19139;49.372;8.580;2024-01-07T08:46:44;19.60;88.50
32787;DHT22;19139;49.372;8.580;2024-01-07T08:49:12;19.70;88.60
32787;DHT22;19139;49.372;8.580;2024-01-07T08:51:40;19.60;88.50
32787;DHT22;19139;49.372;8.580;2024-01-07T08:54:07;19.60;88.50
32787;DHT22;19139;49.372;8.580;2024-01-07T08:56:33;19.70;88.60
32787;DHT22;19139;49.372;8.580;2024-01-07T08:59:00;19.60;88.60
32787;DHT22;19139;49.372;8.580;2024-01-07T09:01:27;19.60;88.70
32787;DHT22;19139;49.372;8.580;2024-01-07T09:03:54;19.60;88.70
32787;DHT22;19139;49.372;8.580;2024-01-07T09:06:20;19.60;88.70
32787;DHT22;19139;49.372;8.580;2024-01-07T09:08:47;19.70;88.70
32787;DHT22;19139;49.372;8.580;2024-01-07T09:11:14;19.70;88.80
32787;DHT22;19139;49.372;8.580;2024-01-07T09:13:41;19.70;88.90
32787;DHT22;19139;49.372;8.580;2024-01-07T09:16:10;19.60;88.80
32787;DHT22;19139;49.372;8.580;2024-01-07T09:18:38;19.60;88.80
32787;DHT22;19139;49.372;8.580;2024-01-07T09:21:05;19.60;88.80
32787;DHT22;19139;49.372;8.580;2024-01-07T09:23:32;19.60;88.80
32787;DHT22;19139;49.372;8.580;2024-01-07T09:26:02;19.60;88.80
32787;DHT22;19139;49.372;8.580;2024-01-07T09:28:30;19.60;88.90
32787;DHT22;19139;49.372;8.580;2024-01-07T09:30:56;19.60;88.90
32787;DHT22;19139;49.372;8.580;2024-01-07T09:33:23;19.60;88.90
32787;DHT22;19139;49.372;8.580;2024-01-07T09:35:50;19.60;88.90
32787;DHT22;19139;49.372;8.580;2024-01-07T09:38:17;19.60;88.90
32787;DHT22;19139;49.372;8.580;2024-01-07T09:40:44;19.60;88.90
32787;DHT22;19139;49.372;8.580;2024-01-07T09:43:11;19.60;88.90
32787;DHT22;19139;49.372;8.580;2024-01-07T09:45:38;19.60;88.90
32787;DHT22;19139;49.372;8.580;2024-01-07T09:48:07;19.60;88.90
32787;DHT22;19139;49.372;8.580;2024-01-07T09:50:34;19.60;88.90
32787;DHT22;19139;49.372;8.580;2024-01-07T09:53:02;19.60;88.90
32787;DHT22;19139;49.372;8.580;2024-01-07T09:55:35;19.60;88.90
32787;DHT22;19139;49.372;8.580;2024-01-07T09:58:03;19.60;88.90
32787;DHT22;19139;49.372;8.580;2024-01-07T10:00:30;19.60;88.90
32787;DHT22;19139;49.372;8.580;2024-01-07T10:02:57;19.60;88.90
32787;DHT22;19139;49.372;8.580;2024-01-07T10:05:24;19.60;88.90
32787;DHT22;19139;49.372;8.580;2024-01-07T10:07:51;19.60;88.90
32787;DHT22;19139;49.372;8.580;2024-01-07T10:10:20;19.60;88.90
32787;DHT22;19139;49.372;8.580;2024-01-07T10:12:48;19.60;89.10
32787;DHT22;19139;49.372;8.580;2024-01-07T10:15:14;19.60;89.20
32787;DHT22;19139;49.372;8.580;2024-01-07T10:17:42;19.70;89.50
32787;DHT22;19139;49.372;8.580;2024-01-07T10:20:12;19.70;90.10
32787;DHT22;19139;49.372;8.580;2024-01-07T10:22:39;19.70;89.70
32787;DHT22;19139;49.372;8.580;2024-01-07T10:25:06;19.70;89.80
32787;DHT22;19139;49.372;8.580;2024-01-07T10:27:34;19.70;89.90
32787;DHT22;19139;49.372;8.580;2024-01-07T10:30:04;19.70;90.00
32787;DHT22;19139;49.372;8.580;2024-01-07T10:32:31;19.70;90.00
32787;DHT22;19139;49.372;8.580;2024-01-07T10:35:02;19.70;90.00
32787;DHT22;19139;49.372;8.580;2024-01-07T10:37:30;19.80;90.10
32787;DHT22;19139;49.372;8.580;2024-01-07T10:39:58;19.80;90.10
32787;DHT22;19139;49.372;8.580;2024-01-07T10:42:33;19.80;90.10
32787;DHT22;19139;49.372;8.580;2024-01-07T10:45:00;19.80;90.10
32787;DHT22;19139;49.372;8.580;2024-01-07T10:47:30;19.80;90.10
32787;DHT22;19139;49.372;8.580;2024-01-07T10:50:02;19.70;90.00
32787;DHT22;19139;49.372;8.580;2024-01-07T10:52:29;19.70;90.00
32787;DHT22;19139;49.372;8.580;2024-01-07T10:54:57;19.70;90.00
32787;DHT22;19139;49.372;8.580;2024-01-07T10:57:48;19.70;90.00
32787;DHT22;19139;49.372;8.580;2024-01-07T11:00:17;19.70;90.00
32787;DHT22;19139;49.372;8.580;2024-01-07T11:05:34;19.70;90.00
32787;DHT22;19139;49.372;8.580;2024-01-07T11:08:07;19.70;90.00
32787;DHT22;19139;49.372;8.580;2024-01-07T11:10:50;19.70;89.90
32787;DHT22;19139;49.372;8.580;2024-01-07T11:13:38;19.70;89.90
32787;DHT22;19139;49.372;8.580;2024-01-07T11:16:06;19.70;89.80
32787;DHT22;19139;49.372;8.580;2024-01-07T11:18:46;19.70;89.70
32787;DHT22;19139;49.372;8.580;2024-01-07T11:21:21;19.80;89.70
32787;DHT22;19139;49.372;8.580;2024-01-07T11:23:48;19.80;89.90
32787;DHT22;19139;49.372;8.580;2024-01-07T11:26:14;19.80;89.50
32787;DHT22;19139;49.372;8.580;2024-01-07T11:28:55;19.80;89.50
32787;DHT22;19139;49.372;8.580;2024-01-07T11:31:49;19.80;89.50
32787;DHT22;19139;49.372;8.580;2024-01-07T11:34:39;19.80;89.40
32787;DHT22;19139;49.372;8.580;2024-01-07T11:37:10;19.80;89.40
32787;DHT22;19139;49.372;8.580;2024-01-07T11:39:39;19.80;89.40
32787;DHT22;19139;49.372;8.580;2024-01-07T11:42:08;19.80;89.40
32787;DHT22;19139;49.372;8.580;2024-01-07T11:44:35;19.80;89.40
32787;DHT22;19139;49.372;8.580;2024-01-07T11:47:06;19.80;89.40
32787;DHT22;19139;49.372;8.580;2024-01-07T11:49:33;19.80;89.40
32787;DHT22;19139;49.372;8.580;2024-01-07T11:52:00;19.80;89.40
32787;DHT22;19139;49.372;8.580;2024-01-07T11:54:29;19.80;89.40
32787;DHT22;19139;49.372;8.580;2024-01-07T11:56:55;19.80;89.50
32787;DHT22;19139;49.372;8.580;2024-01-07T11:59:23;19.70;89.50
32787;DHT22;19139;49.372;8.580;2024-01-07T12:01:51;19.80;89.40
32787;DHT22;19139;49.372;8.580;2024-01-07T12:04:18;19.70;89.40
32787;DHT22;19139;49.372;8.580;2024-01-07T12:06:44;19.70;89.40
32787;DHT22;19139;49.372;8.580;2024-01-07T12:09:12;19.70;89.30
32787;DHT22;19139;49.372;8.580;2024-01-07T12:11:40;19.70;89.40
32787;DHT22;19139;49.372;8.580;2024-01-07T12:14:11;19.70;89.30
32787;DHT22;19139;49.372;8.580;2024-01-07T12:16:38;19.70;89.30
32787;DHT22;19139;49.372;8.580;2024-01-07T12:19:05;19.70;89.20
32787;DHT22;19139;49.372;8.580;2024-01-07T12:21:32;19.70;89.20
32787;DHT22;19139;49.372;8.580;2024-01-07T12:23:58;19.70;89.20
32787;DHT22;19139;49.372;8.580;2024-01-07T12:26:27;19.70;89.20
32787;DHT22;19139;49.372;8.580;2024-01-07T12:28:57;19.70;89.10
32787;DHT22;19139;49.372;8.580;2024-01-07T12:31:26;19.70;89.10
32787;DHT22;19139;49.372;8.580;2024-01-07T12:33:53;19.70;89.10
32787;DHT22;19139;49.372;8.580;2024-01-07T12:36:21;19.70;89.10
32787;DHT22;19139;49.372;8.580;2024-01-07T12:38:49;19.70;89.10
32787;DHT22;19139;49.372;8.580;2024-01-07T12:41:17;19.70;89.10
32787;DHT22;19139;49.372;8.580;2024-01-07T12:43:44;19.70;89.10
32787;DHT22;19139;49.372;8.580;2024-01-07T12:46:11;19.60;88.90
32787;DHT22;19139;49.372;8.580;2024-01-07T12:48:38;19.70;89.00
32787;DHT22;19139;49.372;8.580;2024-01-07T12:51:05;19.60;89.00
32787;DHT22;19139;49.372;8.580;2024-01-07T12:53:32;19.60;89.40
32787;DHT22;19139;49.372;8.580;2024-01-07T12:55:58;19.60;89.00
32787;DHT22;19139;49.372;8.580;2024-01-07T12:58:25;19.60;89.00
32787;DHT22;19139;49.372;8.580;2024-01-07T13:00:52;19.60;89.00
32787;DHT22;19139;49.372;8.580;2024-01-07T13:03:18;19.60;89.00
32787;DHT22;19139;49.372;8.580;2024-01-07T13:05:47;19.60;89.00
32787;DHT22;19139;49.372;8.580;2024-01-07T13:08:18;19.60;89.00
32787;DHT22;19139;49.372;8.580;2024-01-07T13:10:45;19.60;88.90
32787;DHT22;19139;49.372;8.580;2024-01-07T13:13:12;19.60;88.90
32787;DHT22;19139;49.372;8.580;2024-01-07T13:15:42;19.60;89.10
32787;DHT22;19139;49.372;8.580;2024-01-07T13:18:09;19.60;89.10
32787;DHT22;19139;49.372;8.580;2024-01-07T13:20:38;19.60;89.20
32787;DHT22;19139;49.372;8.580;2024-01-07T13:23:08;19.60;89.30
32787;DHT22;19139;49.372;8.580;2024-01-07T13:25:35;19.60;89.90
32787;DHT22;19139;49.372;8.580;2024-01-07T13:28:02;19.60;89.50
32787;DHT22;19139;49.372;8.580;2024-01-07T13:30:29;19.60;89.50
32787;DHT22;19139;49.372;8.580;2024-01-07T13:32:55;19.60;89.50
32787;DHT22;19139;49.372;8.580;2024-01-07T13:35:28;19.60;89.70
32787;DHT22;19139;49.372;8.580;2024-01-07T13:37:55;19.60;89.60
32787;DHT22;19139;49.372;8.580;2024-01-07T13:40:22;19.60;89.60
32787;DHT22;19139;49.372;8.580;2024-01-07T13:42:48;19.60;89.70
32787;DHT22;19139;49.372;8.580;2024-01-07T13:45:18;19.60;89.80
32787;DHT22;19139;49.372;8.580;2024-01-07T13:47:47;19.60;89.80
32787;DHT22;19139;49.372;8.580;2024-01-07T13:50:15;19.60;89.80
32787;DHT22;19139;49.372;8.580;2024-01-07T13:52:43;19.60;89.90
32787;DHT22;19139;49.372;8.580;2024-01-07T13:55:09;19.50;89.80
32787;DHT22;19139;49.372;8.580;2024-01-07T13:57:37;19.60;89.90
32787;DHT22;19139;49.372;8.580;2024-01-07T14:00:04;19.60;90.00
32787;DHT22;19139;49.372;8.580;2024-01-07T14:02:38;19.60;89.90
32787;DHT22;19139;49.372;8.580;2024-01-07T14:05:05;19.60;89.90
32787;DHT22;19139;49.372;8.580;2024-01-07T14:07:33;19.60;89.90
32787;DHT22;19139;49.372;8.580;2024-01-07T14:10:00;19.60;90.00
32787;DHT22;19139;49.372;8.580;2024-01-07T14:12:29;19.60;90.00
32787;DHT22;19139;49.372;8.580;2024-01-07T14:14:56;19.60;90.00
32787;DHT22;19139;49.372;8.580;2024-01-07T14:17:23;19.50;90.00
32787;DHT22;19139;49.372;8.580;2024-01-07T14:19:50;19.50;90.00
32787;DHT22;19139;49.372;8.580;2024-01-07T14:22:20;19.50;90.00
32787;DHT22;19139;49.372;8.580;2024-01-07T14:24:47;19.50;90.00
32787;DHT22;19139;49.372;8.580;2024-01-07T14:27:18;19.60;90.00
32787;DHT22;19139;49.372;8.580;2024-01-07T14:29:44;19.50;90.30
32787;DHT22;19139;49.372;8.580;2024-01-07T14:32:12;19.50;90.30
32787;DHT22;19139;49.372;8.580;2024-01-07T14:34:39;19.50;90.00
32787;DHT22;19139;49.372;8.580;2024-01-07T14:37:11;19.50;90.10
32787;DHT22;19139;49.372;8.580;2024-01-07T14:39:37;19.60;90.20
32787;DHT22;19139;49.372;8.580;2024-01-07T14:42:05;19.60;90.20
32787;DHT22;19139;49.372;8.580;2024-01-07T14:44:32;19.60;90.20
32787;DHT22;19139;49.372;8.580;2024-01-07T14:47:13;19.60;90.20
32787;DHT22;19139;49.372;8.580;2024-01-07T14:49:40;19.60;90.20
32787;DHT22;19139;49.372;8.580;2024-01-07T14:52:07;19.60;90.20
32787;DHT22;19139;49.372;8.580;2024-01-07T14:54:34;19.60;90.20
32787;DHT22;19139;49.372;8.580;2024-01-07T14:57:02;19.50;90.20
32787;DHT22;19139;49.372;8.580;2024-01-07T14:59:30;19.50;90.10
32787;DHT22;19139;49.372;8.580;2024-01-07T15:01:57;19.60;90.20
32787;DHT22;19139;49.372;8.580;2024-01-07T15:04:24;19.50;90.10
32787;DHT22;19139;49.372;8.580;2024-01-07T15:06:51;19.50;90.10
32787;DHT22;19139;49.372;8.580;2024-01-07T15:09:17;19.50;90.10
32787;DHT22;19139;49.372;8.580;2024-01-07T15:11:44;19.50;90.10
32787;DHT22;19139;49.372;8.580;2024-01-07T15:14:15;19.50;90.10
32787;DHT22;19139;49.372;8.580;2024-01-07T15:16:41;19.50;90.10
32787;DHT22;19139;49.372;8.580;2024-01-07T15:19:09;19.50;90.10
32787;DHT22;19139;49.372;8.580;2024-01-07T15:21:35;19.50;90.10
32787;DHT22;19139;49.372;8.580;2024-01-07T15:24:02;19.50;90.10
32787;DHT22;19139;49.372;8.580;2024-01-07T15:26:30;19.50;90.40
32787;DHT22;19139;49.372;8.580;2024-01-07T15:28:57;19.50;90.10
32787;DHT22;19139;49.372;8.580;2024-01-07T15:31:24;19.50;90.20
32787;DHT22;19139;49.372;8.580;2024-01-07T15:33:52;19.50;90.20
32787;DHT22;19139;49.372;8.580;2024-01-07T15:36:19;19.50;90.20